Terminal Aerodrome Forecast
Issued by NWS Pueblo, CO

Home | Current Version | Previous Version | Text Only | Print | Product List | Glossary On
Versions: 1 2 3 4 5 6 7 8 9 10 11 12 13 14 15 16 17 18 19 20 21 22 23 24 25 26 27 28 29 30
000
FTUS45 KPUB 062320
TAFCOS
TAF
KCOS 062320Z 0700/0724 17020G32KT P6SM FEW100 SCT150 BKN250
     FM070300 15013KT P6SM SCT110 SCT200
     FM070700 09008KT P6SM SCT200
     FM071500 16008KT P6SM SCT200
     FM071800 17015G25KT P6SM SCT100
     FM072100 22020G30KT P6SM SCT100 BKN150=

USA.gov is the U.S. government's official web portal to all federal, state and local government web resources and services.